createdAt,value
2023-03-29T00:00:30.488Z,85639.91
2023-03-29T00:02:57.624Z,85634.13
2023-03-29T00:05:25.546Z,85627.25
2023-03-29T00:07:54.474Z,85643.38
2023-03-29T00:10:24.176Z,85606.59
2023-03-29T00:12:52.739Z,85616.63
2023-03-29T00:15:20.645Z,85609.69
2023-03-29T00:17:47.774Z,85605.09
2023-03-29T00:20:14.845Z,85612.47
2023-03-29T00:22:44.634Z,85554.47
2023-03-29T00:25:12.161Z,85578.00
2023-03-29T00:27:39.935Z,85604.59
2023-03-29T00:30:09.084Z,85607.44
2023-03-29T00:32:36.805Z,85623.03
2023-03-29T00:35:06.105Z,85616.38
2023-03-29T00:37:33.799Z,85580.25
2023-03-29T00:40:00.929Z,85624.22
2023-03-29T00:42:28.084Z,85621.28
2023-03-29T00:45:20.695Z,85629.44
2023-03-29T00:47:55.747Z,85628.06
2023-03-29T00:50:26.456Z,85623.91
2023-03-29T00:53:03.716Z,85607.88
2023-03-29T00:55:39.396Z,85592.81
2023-03-29T00:58:10.108Z,85629.44
2023-03-29T01:00:40.400Z,85619.06
2023-03-29T01:03:13.981Z,85633.44
2023-03-29T01:05:49.259Z,85623.81
2023-03-29T01:08:27.752Z,85641.72
2023-03-29T01:11:05.995Z,85646.59
2023-03-29T01:13:54.480Z,85643.09
2023-03-29T01:16:28.789Z,85661.38
2023-03-29T01:18:58.601Z,85600.34
2023-03-29T01:21:32.460Z,85629.25
2023-03-29T01:24:18.272Z,85630.69
2023-03-29T01:26:59.818Z,85644.47
2023-03-29T01:29:48.113Z,85625.75
2023-03-29T01:32:16.947Z,85626.50
2023-03-29T01:34:59.155Z,85612.16
2023-03-29T01:37:36.485Z,85615.28
2023-03-29T01:40:06.258Z,85499.09
2023-03-29T01:42:54.594Z,85618.25
2023-03-29T01:45:50.526Z,85621.88
2023-03-29T01:48:32.870Z,85609.66
2023-03-29T01:51:07.543Z,85615.44
2023-03-29T01:53:54.172Z,85595.44
2023-03-29T01:56:25.001Z,85586.16
2023-03-29T01:59:06.510Z,85643.31
2023-03-29T02:01:38.634Z,85635.06
2023-03-29T02:04:13.405Z,85602.38
2023-03-29T02:06:42.228Z,85601.84
2023-03-29T02:09:09.932Z,85596.78
2023-03-29T02:11:38.062Z,85618.72
2023-03-29T02:14:05.681Z,85613.69
2023-03-29T02:16:39.339Z,85608.34
2023-03-29T02:19:08.104Z,85599.84
2023-03-29T02:22:07.349Z,85624.09
2023-03-29T02:24:37.317Z,85618.50
2023-03-29T02:27:07.845Z,85620.19
2023-03-29T02:29:34.927Z,85588.66
2023-03-29T02:32:20.616Z,85626.50
2023-03-29T02:35:38.577Z,85620.03
2023-03-29T02:38:11.525Z,85618.19
2023-03-29T02:40:42.033Z,85638.50
2023-03-29T02:43:11.445Z,85628.31
2023-03-29T02:45:41.348Z,85599.75
2023-03-29T02:48:13.765Z,85633.72
2023-03-29T02:50:43.147Z,85599.06
2023-03-29T02:53:17.155Z,85630.69
2023-03-29T02:55:47.062Z,85647.84
2023-03-29T02:58:15.692Z,85647.63
2023-03-29T03:00:46.591Z,85652.47
2023-03-29T03:03:15.674Z,85631.00
2023-03-29T03:05:45.278Z,85638.50
2023-03-29T03:08:12.416Z,85621.88
2023-03-29T03:10:40.017Z,85620.84
2023-03-29T03:13:07.382Z,85666.25
2023-03-29T03:15:37.517Z,85685.94
2023-03-29T03:18:04.825Z,85670.81
2023-03-29T03:20:32.661Z,85668.97
2023-03-29T03:23:01.289Z,85647.78
2023-03-29T03:25:28.806Z,85634.94
2023-03-29T03:27:56.348Z,85686.22
2023-03-29T03:30:25.673Z,85667.66
2023-03-29T03:32:55.701Z,85711.59
2023-03-29T03:35:48.783Z,85690.19
2023-03-29T03:38:17.299Z,85708.00
2023-03-29T03:40:54.988Z,85706.81
2023-03-29T03:43:22.671Z,85713.28
2023-03-29T03:45:51.188Z,85701.56
2023-03-29T03:48:23.191Z,85696.69
2023-03-29T03:51:06.123Z,85699.53
2023-03-29T03:53:35.322Z,85719.38
2023-03-29T03:56:15.480Z,85726.28
2023-03-29T03:59:01.363Z,85722.25
2023-03-29T04:01:34.198Z,85719.72
2023-03-29T04:04:14.834Z,85729.22
2023-03-29T04:06:53.233Z,85705.78
2023-03-29T04:09:20.902Z,85732.03
2023-03-29T04:11:56.135Z,85723.91
2023-03-29T04:14:23.221Z,85727.97
2023-03-29T04:17:09.004Z,85729.34
2023-03-29T04:19:49.866Z,85725.53
2023-03-29T04:22:17.032Z,85737.03
2023-03-29T04:24:43.990Z,85734.63
2023-03-29T04:27:37.287Z,85749.81
2023-03-29T04:30:11.244Z,85695.94
2023-03-29T04:33:01.544Z,85711.25
2023-03-29T04:35:28.667Z,85750.97
2023-03-29T04:37:55.774Z,85747.53
2023-03-29T04:40:23.968Z,85721.31
2023-03-29T04:43:07.845Z,85709.09
2023-03-29T04:45:37.053Z,85744.25
2023-03-29T04:48:11.649Z,85734.28
2023-03-29T04:50:41.869Z,85767.19
2023-03-29T04:53:08.894Z,85752.66
2023-03-29T04:55:35.892Z,85745.72
2023-03-29T04:58:03.025Z,85719.16
2023-03-29T05:00:32.255Z,85738.78
2023-03-29T05:03:02.124Z,85735.50
2023-03-29T05:05:32.490Z,85757.78
2023-03-29T05:08:01.921Z,85711.00
2023-03-29T05:10:37.557Z,85754.16
2023-03-29T05:13:04.590Z,85714.16
2023-03-29T05:15:32.353Z,85759.66
2023-03-29T05:18:00.961Z,85724.22
2023-03-29T05:20:28.726Z,85766.56
2023-03-29T05:22:57.364Z,85741.53
2023-03-29T05:25:51.653Z,85762.84
2023-03-29T05:28:19.316Z,85761.66
2023-03-29T05:30:46.877Z,85754.38
2023-03-29T05:33:19.678Z,85761.22
2023-03-29T05:35:46.919Z,85748.75
2023-03-29T05:38:13.976Z,85740.72
2023-03-29T05:40:41.643Z,85749.00
2023-03-29T05:43:17.485Z,85753.59
2023-03-29T05:45:45.571Z,85792.53
2023-03-29T05:48:13.608Z,85746.28
2023-03-29T05:50:47.413Z,85784.19
2023-03-29T05:53:16.492Z,85776.03
2023-03-29T05:55:44.259Z,85789.09
2023-03-29T05:58:14.568Z,85789.63
2023-03-29T06:00:43.077Z,85779.06
2023-03-29T06:03:28.410Z,85771.31
2023-03-29T06:06:00.726Z,85781.72
2023-03-29T06:08:29.041Z,85776.53
2023-03-29T06:11:09.316Z,85780.97
2023-03-29T06:13:55.995Z,85757.41
2023-03-29T06:16:23.485Z,85757.03
2023-03-29T06:18:50.847Z,85777.06
2023-03-29T06:21:18.056Z,85804.91
2023-03-29T06:23:45.448Z,85794.28
2023-03-29T06:26:13.076Z,85755.50
2023-03-29T06:28:40.827Z,85787.94
2023-03-29T06:31:10.400Z,85811.19
2023-03-29T06:33:40.349Z,85803.09
2023-03-29T06:36:16.985Z,85807.97
2023-03-29T06:38:46.022Z,85786.53
2023-03-29T06:41:23.856Z,85818.78
2023-03-29T06:44:10.892Z,85806.31
2023-03-29T06:46:50.558Z,85791.59
2023-03-29T06:49:17.488Z,85805.50
2023-03-29T06:52:00.650Z,85799.84
2023-03-29T06:54:27.815Z,85818.09
2023-03-29T06:57:04.125Z,85813.03
2023-03-29T06:59:35.018Z,85823.72
2023-03-29T07:02:22.947Z,85840.88
2023-03-29T07:05:12.165Z,85850.69
2023-03-29T07:08:00.508Z,85845.13
2023-03-29T07:10:53.962Z,85868.09
2023-03-29T07:13:33.246Z,85840.78
2023-03-29T07:16:04.139Z,85866.91
2023-03-29T07:18:51.610Z,85819.41
2023-03-29T07:21:40.819Z,85862.03
2023-03-29T07:24:10.255Z,85826.25
2023-03-29T07:26:39.295Z,85849.00
2023-03-29T07:29:07.809Z,85862.03
2023-03-29T07:31:38.878Z,85848.59
2023-03-29T07:34:38.574Z,85827.22
2023-03-29T07:37:09.589Z,85840.09
2023-03-29T07:39:38.601Z,85855.72
2023-03-29T07:42:36.824Z,85851.88
2023-03-29T07:45:08.891Z,85848.09
2023-03-29T07:47:45.451Z,85893.75
2023-03-29T07:50:13.007Z,85860.19
2023-03-29T07:52:40.706Z,85867.66
2023-03-29T07:55:10.025Z,85866.22
2023-03-29T07:57:54.288Z,85871.22
2023-03-29T08:00:22.476Z,85885.13
2023-03-29T08:03:07.530Z,85868.16
2023-03-29T08:05:41.204Z,85861.72
2023-03-29T08:08:15.513Z,85885.53
2023-03-29T08:10:50.529Z,85874.63
2023-03-29T08:13:46.708Z,85898.03
2023-03-29T08:16:33.120Z,85893.53
2023-03-29T08:19:08.430Z,85891.25
2023-03-29T08:22:01.750Z,85893.22
2023-03-29T08:24:37.766Z,85895.56
2023-03-29T08:27:07.355Z,85896.75
2023-03-29T08:29:34.662Z,85875.28
2023-03-29T08:32:02.139Z,85892.09
2023-03-29T08:34:31.877Z,85855.28
2023-03-29T08:37:22.143Z,85839.53
2023-03-29T08:39:51.147Z,85875.16
2023-03-29T08:42:47.650Z,85849.84
2023-03-29T08:45:35.630Z,85872.47
2023-03-29T08:48:22.610Z,85836.34
2023-03-29T08:50:54.246Z,85870.47
2023-03-29T08:53:31.952Z,85836.63
2023-03-29T08:56:31.511Z,85873.50
2023-03-29T08:59:37.761Z,85851.00
2023-03-29T09:02:25.365Z,85869.19
2023-03-29T09:05:08.765Z,85869.94
2023-03-29T09:07:44.396Z,85856.34
2023-03-29T09:10:19.163Z,85867.78
2023-03-29T09:13:11.526Z,85872.78
2023-03-29T09:16:06.316Z,85850.94
2023-03-29T09:19:06.912Z,85861.63
2023-03-29T09:21:44.168Z,85858.47
2023-03-29T09:24:39.463Z,85857.53
2023-03-29T09:27:27.487Z,85863.19
2023-03-29T09:30:35.444Z,85831.00
2023-03-29T09:33:14.701Z,85870.28
2023-03-29T09:36:17.541Z,85860.38
2023-03-29T09:38:51.118Z,85850.22
2023-03-29T09:41:32.530Z,85860.13
2023-03-29T09:44:10.936Z,85833.19
2023-03-29T09:46:47.724Z,85860.53
2023-03-29T09:49:21.283Z,85863.00
2023-03-29T09:51:50.277Z,85836.19
2023-03-29T09:54:19.590Z,85846.72
2023-03-29T09:57:15.837Z,85859.25
2023-03-29T09:59:46.268Z,85848.25
2023-03-29T10:02:14.159Z,85877.47
2023-03-29T10:04:43.025Z,85836.09
2023-03-29T10:07:18.471Z,85852.84
2023-03-29T10:09:52.125Z,85789.38
2023-03-29T10:12:21.055Z,85865.22
2023-03-29T10:14:57.609Z,85873.69
2023-03-29T10:17:28.379Z,85840.56
2023-03-29T10:20:04.143Z,85883.53
2023-03-29T10:22:41.294Z,85857.19
2023-03-29T10:25:17.669Z,85846.44
2023-03-29T10:27:48.251Z,85873.34
2023-03-29T10:30:24.277Z,85862.94
2023-03-29T10:33:00.036Z,85864.16
2023-03-29T10:35:34.942Z,85842.06
2023-03-29T10:38:05.087Z,85902.06
2023-03-29T10:40:35.281Z,85884.63
2023-03-29T10:43:20.810Z,85868.38
2023-03-29T10:45:54.584Z,85865.19
2023-03-29T10:48:29.616Z,85881.56
2023-03-29T10:51:02.160Z,85887.16
2023-03-29T10:53:35.183Z,85883.19
2023-03-29T10:56:18.189Z,85892.84
2023-03-29T10:59:15.894Z,85904.97
2023-03-29T11:02:15.319Z,85876.59
2023-03-29T11:05:16.514Z,85876.13
2023-03-29T11:08:17.503Z,85878.00
2023-03-29T11:10:50.751Z,85881.66
2023-03-29T11:13:52.825Z,85864.00
2023-03-29T11:16:42.848Z,85814.22
2023-03-29T11:19:19.115Z,85879.28
2023-03-29T11:21:59.927Z,85873.91
2023-03-29T11:24:48.572Z,85865.72
2023-03-29T11:27:37.094Z,85880.22
2023-03-29T11:30:22.048Z,85893.09
2023-03-29T11:32:56.726Z,85890.22
2023-03-29T11:35:36.484Z,85897.03
2023-03-29T11:38:21.940Z,85903.09
2023-03-29T11:41:23.458Z,85888.03
2023-03-29T11:44:07.146Z,85880.63
2023-03-29T11:46:39.628Z,85880.84
2023-03-29T11:49:10.459Z,85883.72
2023-03-29T11:52:19.268Z,85875.03
2023-03-29T11:54:54.823Z,85877.22
2023-03-29T11:57:28.138Z,85866.59
2023-03-29T12:00:04.536Z,85886.66
2023-03-29T12:02:52.123Z,85867.50
2023-03-29T12:05:30.752Z,85856.56
2023-03-29T12:08:01.121Z,85901.97
2023-03-29T12:10:50.648Z,85870.44
2023-03-29T12:13:33.773Z,85855.34
2023-03-29T12:16:09.014Z,85840.97
2023-03-29T12:18:42.448Z,85853.59
2023-03-29T12:21:17.292Z,85868.13
2023-03-29T12:23:46.093Z,85852.44
2023-03-29T12:26:30.000Z,85818.72
2023-03-29T12:29:26.453Z,85865.63
2023-03-29T12:32:27.844Z,85862.91
2023-03-29T12:35:34.471Z,85842.34
2023-03-29T12:38:21.798Z,85853.38
2023-03-29T12:41:17.816Z,85827.22
2023-03-29T12:43:51.558Z,85861.72
2023-03-29T12:46:32.239Z,85859.63
2023-03-29T12:49:11.599Z,85868.56
2023-03-29T12:51:42.183Z,85854.81
2023-03-29T12:54:16.109Z,85869.91
2023-03-29T12:56:58.533Z,85843.81
2023-03-29T12:59:25.955Z,85878.19
2023-03-29T13:02:14.146Z,85861.66
2023-03-29T13:04:44.049Z,85865.81
2023-03-29T13:07:16.165Z,85867.28
2023-03-29T13:09:59.073Z,85872.72
2023-03-29T13:12:27.538Z,85890.56
2023-03-29T13:14:58.228Z,85869.84
2023-03-29T13:18:09.720Z,85861.63
2023-03-29T13:21:14.044Z,85844.34
2023-03-29T13:23:57.288Z,85872.59
2023-03-29T13:26:36.393Z,85870.63
2023-03-29T13:29:03.708Z,85880.88
2023-03-29T13:32:01.914Z,85878.16
2023-03-29T13:34:44.094Z,85878.28
2023-03-29T13:37:43.390Z,85856.69
2023-03-29T13:40:42.215Z,85897.31
2023-03-29T13:43:21.267Z,85885.66
2023-03-29T13:45:57.009Z,85883.69
2023-03-29T13:48:27.647Z,85886.41
2023-03-29T13:51:08.277Z,85840.97
2023-03-29T13:53:41.052Z,85845.09
2023-03-29T13:56:15.731Z,85886.25
2023-03-29T13:58:58.565Z,85854.63
2023-03-29T14:01:38.257Z,85868.44
2023-03-29T14:04:12.737Z,85897.41
2023-03-29T14:06:42.886Z,85894.56
2023-03-29T14:09:14.515Z,85909.72
2023-03-29T14:11:45.396Z,85895.88
2023-03-29T14:14:12.524Z,85899.91
2023-03-29T14:16:41.886Z,85902.72
2023-03-29T14:19:19.128Z,85905.50
2023-03-29T14:21:46.547Z,85912.38
2023-03-29T14:24:20.997Z,85908.13
2023-03-29T14:26:48.558Z,85869.66
2023-03-29T14:29:15.996Z,85890.94
2023-03-29T14:31:43.348Z,85895.81
2023-03-29T14:34:16.984Z,85905.53
2023-03-29T14:36:46.397Z,85916.47
2023-03-29T14:39:22.263Z,85909.63
2023-03-29T14:41:54.185Z,85922.03
2023-03-29T14:44:24.420Z,85906.97
2023-03-29T14:46:51.479Z,85887.00
2023-03-29T14:49:21.138Z,85918.66
2023-03-29T14:51:49.465Z,85907.59
2023-03-29T14:54:22.280Z,85904.81
2023-03-29T14:56:51.107Z,85918.63
2023-03-29T14:59:55.119Z,85907.53
2023-03-29T15:02:28.441Z,85928.81
2023-03-29T15:05:07.640Z,85894.97
2023-03-29T15:07:37.058Z,85928.63
2023-03-29T15:10:06.617Z,85936.81
2023-03-29T15:12:34.577Z,85933.91
2023-03-29T15:15:02.793Z,85938.75
2023-03-29T15:17:50.308Z,85917.13
2023-03-29T15:20:24.682Z,85917.81
2023-03-29T15:23:00.242Z,85940.44
2023-03-29T15:25:33.156Z,85919.56
2023-03-29T15:28:01.669Z,85945.69
2023-03-29T15:30:37.928Z,85946.84
2023-03-29T15:33:29.145Z,85945.34
2023-03-29T15:35:57.373Z,85960.31
2023-03-29T15:38:33.133Z,85940.75
2023-03-29T15:41:08.610Z,85940.59
2023-03-29T15:43:37.882Z,85955.88
2023-03-29T15:46:07.813Z,85961.16
2023-03-29T15:48:37.021Z,85930.72
2023-03-29T15:51:06.346Z,85932.16
2023-03-29T15:53:42.740Z,85958.94
2023-03-29T15:56:16.017Z,85925.69
2023-03-29T15:58:43.489Z,85962.88
2023-03-29T16:01:19.295Z,85935.75
2023-03-29T16:03:48.031Z,85966.28
2023-03-29T16:06:17.924Z,85973.75
2023-03-29T16:08:49.446Z,85959.97
2023-03-29T16:11:17.000Z,85973.84
2023-03-29T16:13:44.129Z,85972.25
2023-03-29T16:16:11.616Z,85963.91
2023-03-29T16:18:38.764Z,85973.63
2023-03-29T16:21:06.533Z,85961.72
2023-03-29T16:23:33.547Z,85955.44
2023-03-29T16:26:00.808Z,85970.69
2023-03-29T16:28:28.517Z,85952.03
2023-03-29T16:30:55.576Z,85942.94
2023-03-29T16:33:23.015Z,85949.28
2023-03-29T16:35:50.151Z,85985.78
2023-03-29T16:38:17.289Z,85983.72
2023-03-29T16:40:45.181Z,85966.97
2023-03-29T16:43:16.479Z,85957.13
2023-03-29T16:45:47.170Z,85978.72
2023-03-29T16:48:19.940Z,85956.84
2023-03-29T16:50:50.410Z,85997.47
2023-03-29T16:53:19.836Z,85970.63
2023-03-29T16:55:47.811Z,85978.91
2023-03-29T16:58:15.602Z,85971.34
2023-03-29T17:00:45.027Z,86000.91
2023-03-29T17:03:13.589Z,85988.38
2023-03-29T17:05:46.240Z,85968.59
2023-03-29T17:08:13.176Z,85999.94
2023-03-29T17:10:40.920Z,86021.19
2023-03-29T17:13:08.269Z,86021.19
2023-03-29T17:15:39.420Z,86019.03
2023-03-29T17:18:07.308Z,86024.41
2023-03-29T17:20:40.498Z,86021.59
2023-03-29T17:23:08.956Z,86026.59
2023-03-29T17:25:36.357Z,86031.09
2023-03-29T17:28:03.648Z,86008.31
2023-03-29T17:30:31.044Z,86037.31
2023-03-29T17:32:58.138Z,86043.34
2023-03-29T17:35:26.493Z,86037.91
2023-03-29T17:37:54.881Z,86035.72
2023-03-29T17:40:22.663Z,86031.59
2023-03-29T17:42:50.462Z,86042.84
2023-03-29T17:45:17.568Z,86035.84
2023-03-29T17:47:45.102Z,86011.41
2023-03-29T17:50:13.215Z,86052.75
2023-03-29T17:52:40.557Z,86034.00
2023-03-29T17:55:13.758Z,86022.81
2023-03-29T17:57:41.437Z,86070.69
2023-03-29T18:00:12.295Z,86071.59
2023-03-29T18:02:40.428Z,86072.94
2023-03-29T18:05:09.531Z,86068.69
2023-03-29T18:07:37.510Z,86084.69
2023-03-29T18:10:14.491Z,86060.47
2023-03-29T18:12:41.775Z,86057.31
2023-03-29T18:15:09.311Z,86094.28
2023-03-29T18:17:36.457Z,86082.38
2023-03-29T18:20:10.191Z,86065.31
2023-03-29T18:22:41.921Z,86086.41
2023-03-29T18:25:10.213Z,86091.09
2023-03-29T18:27:38.594Z,86082.63
2023-03-29T18:30:07.548Z,86102.00
2023-03-29T18:32:34.570Z,86100.31
2023-03-29T18:35:02.852Z,86099.06
2023-03-29T18:37:29.798Z,86101.31
2023-03-29T18:39:57.035Z,86071.47
2023-03-29T18:42:24.097Z,86096.03
2023-03-29T18:44:51.447Z,86061.72
2023-03-29T18:47:18.510Z,86082.63
2023-03-29T18:49:45.692Z,86108.84
2023-03-29T18:52:12.815Z,86099.06
2023-03-29T18:54:39.845Z,86082.47
2023-03-29T18:57:07.069Z,86118.19
2023-03-29T18:59:36.678Z,86065.72
2023-03-29T19:02:04.121Z,86110.16
2023-03-29T19:04:31.118Z,86108.84
2023-03-29T19:06:59.936Z,86105.81
2023-03-29T19:09:28.123Z,86086.22
2023-03-29T19:11:55.435Z,86098.53
2023-03-29T19:14:25.687Z,86109.13
2023-03-29T19:16:53.174Z,86098.69
2023-03-29T19:19:22.184Z,86097.16
2023-03-29T19:21:49.667Z,86112.53
2023-03-29T19:24:17.218Z,86084.06
2023-03-29T19:26:44.861Z,86075.16
2023-03-29T19:29:11.861Z,86044.59
2023-03-29T19:31:39.068Z,86121.38
2023-03-29T19:34:07.100Z,86116.47
2023-03-29T19:36:34.212Z,86108.28
2023-03-29T19:39:01.330Z,86077.84
2023-03-29T19:41:28.820Z,86116.66
2023-03-29T19:43:55.871Z,86116.56
2023-03-29T19:46:23.333Z,86086.16
2023-03-29T19:48:51.918Z,86116.56
2023-03-29T19:51:19.695Z,86119.34
2023-03-29T19:53:47.357Z,86112.38
2023-03-29T19:56:16.020Z,86109.63
2023-03-29T19:58:43.252Z,86117.13
2023-03-29T20:01:10.337Z,86105.13
2023-03-29T20:03:37.333Z,86114.31
2023-03-29T20:06:08.402Z,86112.31
2023-03-29T20:08:38.945Z,86059.59
2023-03-29T20:11:10.560Z,86112.28
2023-03-29T20:13:46.624Z,86047.09
2023-03-29T20:16:16.773Z,86105.34
2023-03-29T20:18:45.095Z,86086.50
2023-03-29T20:21:18.404Z,86093.97
2023-03-29T20:23:45.680Z,86087.66
2023-03-29T20:26:12.643Z,86109.00
2023-03-29T20:28:39.667Z,86083.75
2023-03-29T20:31:10.895Z,86098.41
2023-03-29T20:33:39.228Z,86086.47
2023-03-29T20:36:06.817Z,86067.69
2023-03-29T20:38:35.537Z,86084.44
2023-03-29T20:41:04.788Z,86106.03
2023-03-29T20:43:37.787Z,86087.22
2023-03-29T20:46:14.486Z,86091.47
2023-03-29T20:48:54.020Z,86105.31
2023-03-29T20:51:22.609Z,86099.78
2023-03-29T20:53:50.789Z,86081.66
2023-03-29T20:56:19.171Z,86099.19
2023-03-29T20:58:46.301Z,86101.88
2023-03-29T21:01:14.599Z,86061.66
2023-03-29T21:03:43.435Z,86091.00
2023-03-29T21:06:15.124Z,86038.34
2023-03-29T21:08:45.546Z,86080.03
2023-03-29T21:11:13.739Z,86097.03
2023-03-29T21:13:41.651Z,86101.22
2023-03-29T21:16:09.035Z,86099.63
2023-03-29T21:18:37.178Z,86074.81
2023-03-29T21:21:08.197Z,86079.16
2023-03-29T21:23:38.367Z,86099.25
2023-03-29T21:26:09.665Z,86076.28
2023-03-29T21:28:37.761Z,86090.13
2023-03-29T21:31:10.755Z,86083.84
2023-03-29T21:33:37.826Z,86045.75
2023-03-29T21:36:10.993Z,86079.81
2023-03-29T21:38:37.961Z,86093.59
2023-03-29T21:41:05.446Z,86051.97
2023-03-29T21:43:32.744Z,86077.75
2023-03-29T21:45:59.728Z,86104.00
2023-03-29T21:48:26.823Z,86092.22
2023-03-29T21:50:53.864Z,86103.31
2023-03-29T21:53:21.018Z,86071.50
2023-03-29T21:55:52.099Z,86092.50
2023-03-29T21:58:19.300Z,86079.19
2023-03-29T22:00:47.691Z,86097.72
2023-03-29T22:03:16.009Z,86099.16
2023-03-29T22:05:44.509Z,86049.25
2023-03-29T22:08:11.913Z,86062.50
2023-03-29T22:10:41.465Z,86103.19
2023-03-29T22:13:09.422Z,86072.25
2023-03-29T22:15:37.178Z,86066.06
2023-03-29T22:18:04.404Z,86089.53
2023-03-29T22:20:35.780Z,86068.66
2023-03-29T22:23:03.486Z,86059.63
2023-03-29T22:25:30.696Z,86076.78
2023-03-29T22:27:58.423Z,86063.75
2023-03-29T22:30:25.551Z,86095.00
2023-03-29T22:32:52.589Z,86101.91
2023-03-29T22:35:19.595Z,86057.75
2023-03-29T22:37:46.615Z,86100.53
2023-03-29T22:40:14.175Z,86079.34
2023-03-29T22:42:41.341Z,86059.03
2023-03-29T22:45:09.129Z,86061.91
2023-03-29T22:47:36.258Z,86082.88
2023-03-29T22:50:03.680Z,86001.00
2023-03-29T22:52:30.810Z,86078.53
2023-03-29T22:54:57.804Z,86091.13
2023-03-29T22:57:24.746Z,86077.44
2023-03-29T22:59:53.136Z,86055.38
2023-03-29T23:02:20.133Z,86064.94
2023-03-29T23:04:47.662Z,86091.13
2023-03-29T23:07:14.850Z,86051.31
2023-03-29T23:09:42.383Z,86090.00
2023-03-29T23:12:14.541Z,86087.88
2023-03-29T23:14:42.917Z,86089.25
2023-03-29T23:17:10.413Z,86087.28
2023-03-29T23:19:38.254Z,86078.50
2023-03-29T23:22:05.236Z,86049.69
2023-03-29T23:24:32.566Z,86092.63
2023-03-29T23:27:01.243Z,86094.16
2023-03-29T23:29:28.594Z,86046.88
2023-03-29T23:31:56.951Z,86092.97
2023-03-29T23:34:24.093Z,86073.09
2023-03-29T23:36:51.118Z,86100.00
2023-03-29T23:39:24.061Z,86062.00
2023-03-29T23:41:51.142Z,86080.31
2023-03-29T23:44:18.136Z,86083.28
2023-03-29T23:46:45.124Z,86054.03
2023-03-29T23:49:12.390Z,86063.84
2023-03-29T23:51:39.736Z,85997.63
2023-03-29T23:54:07.425Z,86064.94
2023-03-29T23:56:34.625Z,86079.09
2023-03-29T23:59:01.703Z,86056.91
